Time;durP1;ratioP1;P1;durP2;ratioP2;P2;SDS_P1;SDS_P2;PMS_P1;PMS_P2;Temp;Humidity;BMP_temperature;BMP_pressure;BME280_temperature;BME280_humidity;BME280_pressure;Samples;Min_cycle;Max_cycle;Signal;HPM_P1;HPM_P2
2022/03/10 00:01:27;;;;;;;54.10;30.27;;;;;;;;;;4977620;28;20027;-53
2022/03/10 00:03:53;;;;;;;52.78;29.45;;;;;;;;;;4976938;28;20357;-56
2022/03/10 00:06:19;;;;;;;54.03;31.02;;;;;;;;;;4977187;28;20118;-51
2022/03/10 00:08:45;;;;;;;53.10;30.05;;;;;;;;;;4977407;28;20371;-55
2022/03/10 00:11:11;;;;;;;55.97;32.10;;;;;;;;;;4975521;28;20084;-50
2022/03/10 00:13:37;;;;;;;57.00;30.70;;;;;;;;;;4977176;28;20031;-52
2022/03/10 00:16:04;;;;;;;52.88;29.33;;;;;;;;;;4976748;28;20019;-53
2022/03/10 00:18:30;;;;;;;55.13;30.83;;;;;;;;;;4976652;28;20023;-53
2022/03/10 00:20:56;;;;;;;50.22;29.95;;;;;;;;;;4977061;28;20027;-58
2022/03/10 00:23:22;;;;;;;56.30;30.92;;;;;;;;;;4976827;28;20026;-54
2022/03/10 00:25:48;;;;;;;52.60;30.27;;;;;;;;;;4976391;28;20023;-56
2022/03/10 00:28:14;;;;;;;58.22;32.63;;;;;;;;;;4976811;28;20039;-56
2022/03/10 00:30:40;;;;;;;58.97;32.55;;;;;;;;;;4976847;28;20037;-54
2022/03/10 00:33:07;;;;;;;64.75;33.28;;;;;;;;;;4976185;28;20102;-54
2022/03/10 00:35:34;;;;;;;59.65;33.22;;;;;;;;;;4976667;28;20042;-50
2022/03/10 00:38:00;;;;;;;62.72;34.22;;;;;;;;;;4976917;28;20027;-52
2022/03/10 00:40:26;;;;;;;62.20;33.45;;;;;;;;;;4976577;28;20054;-52
2022/03/10 00:42:52;;;;;;;57.75;31.75;;;;;;;;;;4976195;28;20078;-53
2022/03/10 00:45:19;;;;;;;57.78;30.88;;;;;;;;;;4976517;28;20027;-53
2022/03/10 00:47:45;;;;;;;54.70;32.22;;;;;;;;;;4976122;28;20126;-57
2022/03/10 00:50:11;;;;;;;54.75;30.45;;;;;;;;;;4976523;28;20023;-54
2022/03/10 00:52:42;;;;;;;54.33;30.95;;;;;;;;;;4976088;28;20468;-52
2022/03/10 00:55:09;;;;;;;56.33;31.20;;;;;;;;;;4976068;28;20055;-56
2022/03/10 00:57:35;;;;;;;53.22;30.80;;;;;;;;;;4976485;28;20259;-52
2022/03/10 01:00:01;;;;;;;53.63;30.52;;;;;;;;;;4975669;28;20023;-54
2022/03/10 01:02:30;;;;;;;52.40;31.10;;;;;;;;;;4976175;28;20026;-54
2022/03/10 01:04:56;;;;;;;61.00;33.33;;;;;;;;;;4975924;28;20029;-55
2022/03/10 01:07:23;;;;;;;54.88;31.27;;;;;;;;;;4975651;28;20027;-53
2022/03/10 01:09:49;;;;;;;59.63;33.10;;;;;;;;;;4976070;28;20039;-51
2022/03/10 01:12:15;;;;;;;54.72;31.02;;;;;;;;;;4975966;28;20015;-54
2022/03/10 01:14:41;;;;;;;56.15;30.80;;;;;;;;;;4975545;28;20031;-53
2022/03/10 01:17:07;;;;;;;57.80;30.85;;;;;;;;;;4975659;28;20166;-50
2022/03/10 01:19:33;;;;;;;55.60;31.65;;;;;;;;;;4975626;28;20014;-53
2022/03/10 01:21:59;;;;;;;56.13;31.92;;;;;;;;;;4975510;28;20019;-54
2022/03/10 01:24:26;;;;;;;61.38;34.20;;;;;;;;;;4975767;28;20030;-56
2022/03/10 01:26:52;;;;;;;57.50;33.53;;;;;;;;;;4975607;28;20082;-51
2022/03/10 01:29:18;;;;;;;61.38;33.50;;;;;;;;;;4975525;28;20046;-56
2022/03/10 01:31:45;;;;;;;59.92;34.60;;;;;;;;;;4975609;28;20026;-56
2022/03/10 01:34:11;;;;;;;57.15;33.90;;;;;;;;;;4975679;28;20082;-54
2022/03/10 01:36:37;;;;;;;65.38;33.80;;;;;;;;;;4974513;28;20384;-56
2022/03/10 01:39:04;;;;;;;58.13;34.10;;;;;;;;;;4975245;28;20084;-53
2022/03/10 01:41:33;;;;;;;58.65;32.80;;;;;;;;;;4975348;28;20054;-53
2022/03/10 01:44:00;;;;;;;56.97;31.50;;;;;;;;;;4974978;28;20018;-55
2022/03/10 01:46:27;;;;;;;54.65;30.35;;;;;;;;;;4975417;28;20345;-54
2022/03/10 01:48:53;;;;;;;53.80;31.00;;;;;;;;;;4974853;28;20027;-53
2022/03/10 01:51:20;;;;;;;58.88;31.13;;;;;;;;;;4975440;28;20443;-52
2022/03/10 01:53:48;;;;;;;52.38;28.67;;;;;;;;;;4975017;28;20472;-52
2022/03/10 01:56:15;;;;;;;49.05;28.85;;;;;;;;;;4974980;28;20019;-52
2022/03/10 01:58:41;;;;;;;52.30;29.92;;;;;;;;;;4975248;28;20086;-53
2022/03/10 02:01:09;;;;;;;53.78;29.88;;;;;;;;;;4975259;28;20023;-53
2022/03/10 02:03:35;;;;;;;56.08;31.15;;;;;;;;;;4975012;28;20027;-56
2022/03/10 02:06:01;;;;;;;53.58;30.88;;;;;;;;;;4974550;28;20053;-52
2022/03/10 02:11:12;;;;;;;54.05;32.30;;;;;;;;;;4974616;28;20041;-51
2022/03/10 02:13:39;;;;;;;60.35;32.70;;;;;;;;;;4975302;28;20026;-53
2022/03/10 02:18:49;;;;;;;59.88;32.72;;;;;;;;;;4974479;28;20065;-49
2022/03/10 02:21:16;;;;;;;57.80;33.00;;;;;;;;;;4974712;28;20436;-52
2022/03/10 02:23:44;;;;;;;63.90;33.90;;;;;;;;;;4974955;28;20023;-51
2022/03/10 02:26:11;;;;;;;63.92;33.03;;;;;;;;;;4974235;28;20059;-49
2022/03/10 02:28:37;;;;;;;63.80;32.67;;;;;;;;;;4975375;28;20417;-51
2022/03/10 02:31:03;;;;;;;64.40;33.75;;;;;;;;;;4973203;28;20453;-48
2022/03/10 02:33:29;;;;;;;65.72;34.38;;;;;;;;;;4974557;28;20034;-51
2022/03/10 02:35:55;;;;;;;77.68;40.50;;;;;;;;;;4974522;28;20023;-50
2022/03/10 02:38:21;;;;;;;71.93;35.35;;;;;;;;;;4974228;28;20026;-50
2022/03/10 02:40:48;;;;;;;61.88;34.65;;;;;;;;;;4974756;28;20027;-51
2022/03/10 02:43:15;;;;;;;67.18;33.88;;;;;;;;;;4975391;28;20456;-53
2022/03/10 02:45:41;;;;;;;56.22;31.73;;;;;;;;;;4974198;28;20070;-51
2022/03/10 02:48:07;;;;;;;53.42;30.83;;;;;;;;;;4974696;28;20037;-51
2022/03/10 02:50:33;;;;;;;59.38;31.83;;;;;;;;;;4978172;28;20033;-52
2022/03/10 02:52:59;;;;;;;56.45;30.73;;;;;;;;;;4978141;28;20027;-48
2022/03/10 02:55:26;;;;;;;57.17;30.38;;;;;;;;;;4978266;28;20023;-52
2022/03/10 02:57:52;;;;;;;54.85;29.35;;;;;;;;;;4978239;28;20081;-51
2022/03/10 03:00:18;;;;;;;59.03;33.40;;;;;;;;;;4978150;28;20119;-52
2022/03/10 03:02:46;;;;;;;57.55;30.30;;;;;;;;;;4978782;28;20029;-48
2022/03/10 03:05:12;;;;;;;66.43;35.60;;;;;;;;;;4978451;28;20030;-52
2022/03/10 03:07:39;;;;;;;60.10;33.53;;;;;;;;;;4977901;28;20035;-47
2022/03/10 03:10:06;;;;;;;55.20;29.25;;;;;;;;;;4978507;28;20034;-50
2022/03/10 03:12:32;;;;;;;56.33;30.80;;;;;;;;;;4977915;28;20030;-49
2022/03/10 03:14:59;;;;;;;62.78;32.00;;;;;;;;;;4977881;28;20034;-53
2022/03/10 03:17:25;;;;;;;56.78;29.92;;;;;;;;;;4978124;28;20030;-50
2022/03/10 03:19:51;;;;;;;109.25;49.55;;;;;;;;;;4977541;28;20082;-50
2022/03/10 03:22:18;;;;;;;61.70;32.78;;;;;;;;;;4978249;28;20023;-50
2022/03/10 03:24:45;;;;;;;55.50;29.35;;;;;;;;;;4977980;28;20069;-51
2022/03/10 03:27:14;;;;;;;55.88;29.65;;;;;;;;;;4977604;28;20495;-52
2022/03/10 03:29:40;;;;;;;50.67;29.05;;;;;;;;;;4977659;28;20395;-55
2022/03/10 03:32:06;;;;;;;51.20;28.92;;;;;;;;;;4977579;28;20092;-52
2022/03/10 03:34:32;;;;;;;59.22;31.52;;;;;;;;;;4977754;28;20427;-50
2022/03/10 03:36:59;;;;;;;53.67;30.05;;;;;;;;;;4977580;28;20427;-51
2022/03/10 03:39:25;;;;;;;48.13;27.63;;;;;;;;;;4977462;28;20468;-52
2022/03/10 03:41:51;;;;;;;54.47;29.08;;;;;;;;;;4977125;28;20047;-51
2022/03/10 03:44:17;;;;;;;52.17;27.77;;;;;;;;;;4977686;28;20023;-53
2022/03/10 03:46:43;;;;;;;52.47;28.45;;;;;;;;;;4977562;28;20053;-54
2022/03/10 03:49:09;;;;;;;51.47;29.35;;;;;;;;;;4977077;28;20033;-52
2022/03/10 03:51:36;;;;;;;52.22;27.52;;;;;;;;;;4977311;28;20031;-52
2022/03/10 03:54:02;;;;;;;54.67;28.85;;;;;;;;;;4977504;28;20056;-54
2022/03/10 03:56:28;;;;;;;57.53;28.67;;;;;;;;;;4977422;28;20579;-51
2022/03/10 03:58:54;;;;;;;51.17;27.48;;;;;;;;;;4977427;28;20462;-54
2022/03/10 04:01:20;;;;;;;56.90;28.65;;;;;;;;;;4976911;28;20027;-53
2022/03/10 04:03:47;;;;;;;57.03;28.10;;;;;;;;;;4977087;28;20072;-53
2022/03/10 04:06:13;;;;;;;57.45;29.20;;;;;;;;;;4977163;28;20031;-53
2022/03/10 04:08:39;;;;;;;59.33;29.88;;;;;;;;;;4976894;28;20027;-55
2022/03/10 04:11:05;;;;;;;56.47;28.48;;;;;;;;;;4976915;28;20055;-52
2022/03/10 04:13:31;;;;;;;52.45;28.85;;;;;;;;;;4977269;28;20027;-53
2022/03/10 04:15:57;;;;;;;52.15;28.45;;;;;;;;;;4976454;28;20042;-51
2022/03/10 04:18:23;;;;;;;51.03;28.77;;;;;;;;;;4977017;28;20031;-53
2022/03/10 04:20:50;;;;;;;57.53;30.88;;;;;;;;;;4977017;28;20030;-54
2022/03/10 04:23:16;;;;;;;56.30;28.95;;;;;;;;;;4976890;28;20035;-53
2022/03/10 04:25:43;;;;;;;60.58;29.77;;;;;;;;;;4976940;28;20026;-53
2022/03/10 04:28:09;;;;;;;60.17;30.70;;;;;;;;;;4976533;28;20073;-53
2022/03/10 04:30:37;;;;;;;68.32;31.63;;;;;;;;;;4976204;28;20053;-54
2022/03/10 04:33:03;;;;;;;59.70;31.73;;;;;;;;;;4977191;28;20361;-54
2022/03/10 04:35:29;;;;;;;60.30;31.30;;;;;;;;;;4976665;28;20482;-50
2022/03/10 04:37:56;;;;;;;58.85;31.23;;;;;;;;;;4976993;28;20038;-50
2022/03/10 04:40:22;;;;;;;59.53;30.67;;;;;;;;;;4976651;28;20150;-51
2022/03/10 04:42:49;;;;;;;62.33;31.70;;;;;;;;;;4977056;28;20050;-56
2022/03/10 04:45:16;;;;;;;60.75;31.50;;;;;;;;;;4976157;28;20019;-52
2022/03/10 04:47:42;;;;;;;63.58;32.42;;;;;;;;;;4976310;28;20037;-54
2022/03/10 04:50:09;;;;;;;58.47;30.05;;;;;;;;;;4976431;28;20037;-54
2022/03/10 04:52:35;;;;;;;54.63;29.58;;;;;;;;;;4976097;28;20050;-49
2022/03/10 04:55:02;;;;;;;59.97;30.80;;;;;;;;;;4975763;28;20070;-54
2022/03/10 04:57:28;;;;;;;61.03;31.95;;;;;;;;;;4976393;28;20357;-48
2022/03/10 04:59:54;;;;;;;60.58;30.80;;;;;;;;;;4975950;28;20033;-54
2022/03/10 05:02:20;;;;;;;61.00;30.65;;;;;;;;;;4975656;28;20022;-53
2022/03/10 05:04:46;;;;;;;60.58;30.60;;;;;;;;;;4976428;28;20015;-51
2022/03/10 05:07:13;;;;;;;56.88;29.73;;;;;;;;;;4975610;28;20104;-60
2022/03/10 05:09:40;;;;;;;65.07;32.97;;;;;;;;;;4975463;28;20034;-54
2022/03/10 05:12:06;;;;;;;59.60;30.63;;;;;;;;;;4973274;28;20027;-55
2022/03/10 05:14:32;;;;;;;58.10;30.40;;;;;;;;;;4974298;28;20037;-51
2022/03/10 05:16:58;;;;;;;60.33;31.60;;;;;;;;;;4974397;28;20040;-51
2022/03/10 05:19:25;;;;;;;65.90;32.70;;;;;;;;;;4975642;28;20105;-56
2022/03/10 05:21:51;;;;;;;59.38;31.40;;;;;;;;;;4976156;28;20027;-51
2022/03/10 05:24:17;;;;;;;61.45;32.10;;;;;;;;;;4975561;28;20381;-56
2022/03/10 05:26:43;;;;;;;57.45;30.90;;;;;;;;;;4975517;28;20022;-53
2022/03/10 05:29:10;;;;;;;59.67;31.98;;;;;;;;;;4975479;28;20383;-55
2022/03/10 05:31:36;;;;;;;83.47;45.72;;;;;;;;;;4975401;28;20049;-56
2022/03/10 05:34:03;;;;;;;77.60;41.33;;;;;;;;;;4975084;28;20027;-53
2022/03/10 05:36:29;;;;;;;63.88;33.55;;;;;;;;;;4975161;28;20030;-53
2022/03/10 05:38:55;;;;;;;57.55;30.63;;;;;;;;;;4975234;28;20019;-52
2022/03/10 05:41:21;;;;;;;60.72;31.92;;;;;;;;;;4975030;28;20046;-54
2022/03/10 05:43:48;;;;;;;76.40;42.08;;;;;;;;;;4975502;28;20158;-55
2022/03/10 05:46:14;;;;;;;64.63;35.33;;;;;;;;;;4975057;28;20467;-51
2022/03/10 05:48:40;;;;;;;113.47;54.92;;;;;;;;;;4975393;28;20031;-49
2022/03/10 05:51:06;;;;;;;102.78;51.75;;;;;;;;;;4975480;28;20027;-56
2022/03/10 05:53:32;;;;;;;114.85;57.08;;;;;;;;;;4975484;28;20027;-49
2022/03/10 05:55:58;;;;;;;127.82;62.15;;;;;;;;;;4974672;28;20026;-55
2022/03/10 05:58:24;;;;;;;100.50;53.10;;;;;;;;;;4974984;28;20031;-55
2022/03/10 06:00:51;;;;;;;85.13;43.00;;;;;;;;;;4974836;28;20034;-51
2022/03/10 06:03:19;;;;;;;80.10;43.70;;;;;;;;;;4974683;28;20031;-53
2022/03/10 06:05:45;;;;;;;94.15;49.08;;;;;;;;;;4975310;28;20605;-56
2022/03/10 06:08:11;;;;;;;99.88;50.75;;;;;;;;;;4974564;28;20074;-54
2022/03/10 06:10:37;;;;;;;109.15;55.13;;;;;;;;;;4973405;28;20031;-52
2022/03/10 06:13:05;;;;;;;110.88;56.20;;;;;;;;;;4973568;28;20026;-53
2022/03/10 06:15:31;;;;;;;109.82;56.30;;;;;;;;;;4973332;28;20031;-52
2022/03/10 06:17:57;;;;;;;97.18;51.92;;;;;;;;;;4973368;28;20030;-51
2022/03/10 06:20:24;;;;;;;112.25;59.05;;;;;;;;;;4973718;28;20030;-54
2022/03/10 06:22:51;;;;;;;111.25;58.60;;;;;;;;;;4973248;28;20023;-52
2022/03/10 06:25:17;;;;;;;112.40;62.15;;;;;;;;;;4974968;28;20081;-49
2022/03/10 06:27:43;;;;;;;119.57;67.63;;;;;;;;;;4974576;28;20476;-50
2022/03/10 06:30:09;;;;;;;110.30;60.90;;;;;;;;;;4973312;28;20034;-53
2022/03/10 06:32:35;;;;;;;103.18;54.78;;;;;;;;;;4974228;28;20555;-52
2022/03/10 06:35:02;;;;;;;110.55;61.65;;;;;;;;;;4974541;28;20038;-51
2022/03/10 06:37:28;;;;;;;130.68;67.30;;;;;;;;;;4974149;28;20484;-53
2022/03/10 06:39:54;;;;;;;102.55;57.17;;;;;;;;;;4974836;28;20031;-51
2022/03/10 06:42:20;;;;;;;98.03;50.05;;;;;;;;;;4974933;28;20129;-54
2022/03/10 06:44:46;;;;;;;118.63;59.03;;;;;;;;;;4974750;28;20453;-51
2022/03/10 06:47:13;;;;;;;119.90;60.45;;;;;;;;;;4974590;28;20038;-53
2022/03/10 06:49:39;;;;;;;146.10;73.53;;;;;;;;;;4974688;28;20061;-52
2022/03/10 06:52:06;;;;;;;131.43;67.28;;;;;;;;;;4974351;28;20126;-54
2022/03/10 06:54:32;;;;;;;91.68;50.80;;;;;;;;;;4974965;28;20082;-55
2022/03/10 06:56:58;;;;;;;83.45;46.75;;;;;;;;;;4974187;28;20089;-57
2022/03/10 06:59:25;;;;;;;89.07;49.30;;;;;;;;;;4974527;28;20069;-53
2022/03/10 07:01:51;;;;;;;82.65;46.17;;;;;;;;;;4973609;28;20069;-51
2022/03/10 07:04:17;;;;;;;77.82;42.97;;;;;;;;;;4972639;28;20046;-50
2022/03/10 07:06:43;;;;;;;81.47;45.53;;;;;;;;;;4972829;28;20437;-54
2022/03/10 07:09:09;;;;;;;75.60;40.95;;;;;;;;;;4974044;28;20026;-54
2022/03/10 07:11:35;;;;;;;58.67;34.88;;;;;;;;;;4974497;28;20089;-51
2022/03/10 07:14:02;;;;;;;54.78;31.98;;;;;;;;;;4974583;28;20030;-52
2022/03/10 07:16:28;;;;;;;58.78;33.60;;;;;;;;;;4974421;28;20034;-50
2022/03/10 07:18:54;;;;;;;55.42;32.85;;;;;;;;;;4974567;28;20363;-49
2022/03/10 07:21:21;;;;;;;62.85;34.10;;;;;;;;;;4974129;28;20376;-54
2022/03/10 07:23:47;;;;;;;92.15;50.00;;;;;;;;;;4974368;28;20448;-50
2022/03/10 07:26:14;;;;;;;90.30;47.53;;;;;;;;;;4974114;28;20033;-54
2022/03/10 07:28:40;;;;;;;67.95;39.58;;;;;;;;;;4974446;28;20030;-53
2022/03/10 07:31:07;;;;;;;62.83;36.53;;;;;;;;;;4974368;28;20047;-50
2022/03/10 07:33:33;;;;;;;70.80;39.95;;;;;;;;;;4974090;28;20037;-51
2022/03/10 07:35:59;;;;;;;66.78;38.97;;;;;;;;;;4976681;28;20046;-52
2022/03/10 07:38:25;;;;;;;78.72;44.40;;;;;;;;;;4977813;28;20102;-53
2022/03/10 07:40:51;;;;;;;88.03;49.25;;;;;;;;;;4977514;28;20102;-51
2022/03/10 07:43:18;;;;;;;100.32;53.53;;;;;;;;;;4977833;28;20057;-57
2022/03/10 07:45:45;;;;;;;89.57;51.05;;;;;;;;;;4977923;28;20353;-53
2022/03/10 07:48:11;;;;;;;90.93;50.75;;;;;;;;;;4976982;28;20027;-52
2022/03/10 07:50:37;;;;;;;94.05;52.47;;;;;;;;;;4977311;28;20031;-56
2022/03/10 07:53:04;;;;;;;106.82;56.95;;;;;;;;;;4977166;28;20029;-50
2022/03/10 07:55:30;;;;;;;96.85;49.30;;;;;;;;;;4977171;28;20023;-49
2022/03/10 07:57:57;;;;;;;97.85;51.47;;;;;;;;;;4977165;28;20100;-53
2022/03/10 08:00:23;;;;;;;138.93;65.20;;;;;;;;;;4976794;28;20081;-55
2022/03/10 08:02:49;;;;;;;113.40;57.83;;;;;;;;;;4977349;28;20019;-52
2022/03/10 08:05:15;;;;;;;83.68;43.15;;;;;;;;;;4977321;28;20023;-53
2022/03/10 08:07:42;;;;;;;94.55;49.35;;;;;;;;;;4976580;28;20058;-55
2022/03/10 08:10:08;;;;;;;80.18;42.65;;;;;;;;;;4977251;28;20038;-54
2022/03/10 08:12:35;;;;;;;96.00;48.55;;;;;;;;;;4976917;28;20025;-54
2022/03/10 08:15:01;;;;;;;88.95;46.83;;;;;;;;;;4976715;28;20461;-53
2022/03/10 08:17:28;;;;;;;72.30;40.53;;;;;;;;;;4977124;28;20085;-55
2022/03/10 08:19:55;;;;;;;66.80;39.47;;;;;;;;;;4977273;28;20019;-55
2022/03/10 08:22:22;;;;;;;69.20;40.17;;;;;;;;;;4976525;28;20023;-53
2022/03/10 08:24:48;;;;;;;65.40;37.25;;;;;;;;;;4976615;28;20061;-55
2022/03/10 08:27:15;;;;;;;55.45;33.60;;;;;;;;;;4976437;28;20034;-57
2022/03/10 08:29:42;;;;;;;56.17;32.28;;;;;;;;;;4976354;28;20102;-54
2022/03/10 08:32:08;;;;;;;65.03;35.80;;;;;;;;;;4976711;28;20031;-53
2022/03/10 08:34:35;;;;;;;78.38;41.88;;;;;;;;;;4975430;28;20380;-53
2022/03/10 08:37:01;;;;;;;74.53;40.70;;;;;;;;;;4975858;28;20464;-53
2022/03/10 08:39:27;;;;;;;68.90;37.85;;;;;;;;;;4975911;28;20041;-51
2022/03/10 08:41:54;;;;;;;70.55;38.50;;;;;;;;;;4975428;28;20057;-51
2022/03/10 08:44:21;;;;;;;61.65;35.20;;;;;;;;;;4975868;28;20089;-55
2022/03/10 08:46:48;;;;;;;66.43;36.08;;;;;;;;;;4976453;28;20035;-52
2022/03/10 08:49:17;;;;;;;70.28;37.92;;;;;;;;;;4975064;28;20029;-53
2022/03/10 08:51:44;;;;;;;70.53;38.28;;;;;;;;;;4975585;28;20124;-52
2022/03/10 08:54:11;;;;;;;64.55;36.03;;;;;;;;;;4975877;28;20059;-52
2022/03/10 08:56:37;;;;;;;62.80;35.03;;;;;;;;;;4974751;28;20040;-52
2022/03/10 08:59:03;;;;;;;53.17;29.90;;;;;;;;;;4975332;28;20034;-51
2022/03/10 09:01:29;;;;;;;51.58;29.30;;;;;;;;;;4975724;28;20460;-55
2022/03/10 09:03:55;;;;;;;38.65;23.70;;;;;;;;;;4975664;28;20062;-50
2022/03/10 09:06:22;;;;;;;34.95;20.50;;;;;;;;;;4976135;28;20379;-54
2022/03/10 09:08:48;;;;;;;86.63;49.58;;;;;;;;;;4976104;28;20026;-52
2022/03/10 09:11:15;;;;;;;85.85;50.70;;;;;;;;;;4975478;28;20379;-52
2022/03/10 09:13:44;;;;;;;86.97;49.70;;;;;;;;;;4975826;28;20026;-52
2022/03/10 09:16:10;;;;;;;150.52;93.53;;;;;;;;;;4975992;28;20023;-52
2022/03/10 09:18:36;;;;;;;87.80;52.22;;;;;;;;;;4976039;28;20026;-49
2022/03/10 09:21:05;;;;;;;77.72;46.80;;;;;;;;;;4977093;28;20023;-48
2022/03/10 09:23:31;;;;;;;64.13;36.25;;;;;;;;;;4976716;28;20366;-54
2022/03/10 09:25:57;;;;;;;71.30;39.38;;;;;;;;;;4976407;28;20058;-51
2022/03/10 09:28:23;;;;;;;80.63;48.47;;;;;;;;;;4975787;28;20026;-51
2022/03/10 09:30:49;;;;;;;75.53;44.45;;;;;;;;;;4975508;28;20023;-51
2022/03/10 09:33:15;;;;;;;69.72;40.65;;;;;;;;;;4976124;28;20022;-50
2022/03/10 09:35:41;;;;;;;88.22;48.88;;;;;;;;;;4975766;28;20055;-52
2022/03/10 09:38:08;;;;;;;78.68;46.30;;;;;;;;;;4975684;28;20045;-50
2022/03/10 09:40:34;;;;;;;84.72;51.28;;;;;;;;;;4975616;28;20511;-51
2022/03/10 09:43:00;;;;;;;79.20;44.85;;;;;;;;;;4976155;28;20073;-53
2022/03/10 09:45:29;;;;;;;68.05;39.22;;;;;;;;;;4974984;28;20451;-52
2022/03/10 09:47:55;;;;;;;69.93;38.90;;;;;;;;;;4974777;28;20031;-53
2022/03/10 09:50:22;;;;;;;75.90;42.72;;;;;;;;;;4974445;28;20031;-54
2022/03/10 09:52:48;;;;;;;82.15;45.08;;;;;;;;;;4974243;28;20540;-52
2022/03/10 09:55:16;;;;;;;78.45;43.90;;;;;;;;;;4973606;28;20023;-57
2022/03/10 09:57:43;;;;;;;80.80;45.90;;;;;;;;;;4974312;28;20113;-53
2022/03/10 10:00:10;;;;;;;73.05;42.00;;;;;;;;;;4974474;28;20018;-51
2022/03/10 10:02:37;;;;;;;71.57;40.20;;;;;;;;;;4974754;28;20503;-56
2022/03/10 10:05:18;;;;;;;69.90;39.97;;;;;;;;;;4974875;28;20396;-53
2022/03/10 10:07:59;;;;;;;78.18;42.47;;;;;;;;;;4974595;28;20034;-54
2022/03/10 10:10:29;;;;;;;71.57;39.92;;;;;;;;;;4973646;28;20027;-52
2022/03/10 10:12:55;;;;;;;59.05;33.17;;;;;;;;;;4973851;28;20487;-53
2022/03/10 10:15:22;;;;;;;59.47;33.55;;;;;;;;;;4974427;28;20027;-54
2022/03/10 10:17:57;;;;;;;58.38;33.70;;;;;;;;;;4974999;28;20030;-55
2022/03/10 10:20:24;;;;;;;50.88;28.05;;;;;;;;;;4974733;28;20027;-55
2022/03/10 10:22:51;;;;;;;53.35;30.30;;;;;;;;;;4974704;28;20030;-53
2022/03/10 10:25:21;;;;;;;52.22;29.95;;;;;;;;;;4974574;28;20365;-53
2022/03/10 10:27:48;;;;;;;56.33;29.88;;;;;;;;;;4974695;28;20041;-53
2022/03/10 10:30:15;;;;;;;59.70;33.65;;;;;;;;;;4974905;28;20054;-55
2022/03/10 10:32:41;;;;;;;41.47;24.75;;;;;;;;;;4975080;28;20134;-51
2022/03/10 10:35:08;;;;;;;50.40;27.85;;;;;;;;;;4975471;28;20500;-55
2022/03/10 10:37:35;;;;;;;59.55;31.58;;;;;;;;;;4976034;28;20428;-56
2022/03/10 10:40:02;;;;;;;57.40;31.77;;;;;;;;;;4975934;28;20433;-56
2022/03/10 10:42:30;;;;;;;59.95;32.58;;;;;;;;;;4975650;28;20047;-56
2022/03/10 10:44:58;;;;;;;59.92;32.50;;;;;;;;;;4976624;28;20487;-55
2022/03/10 10:47:26;;;;;;;94.40;51.08;;;;;;;;;;4975633;28;20035;-54
2022/03/10 10:50:02;;;;;;;49.10;28.40;;;;;;;;;;4975271;28;20027;-54
2022/03/10 10:52:38;;;;;;;89.78;48.33;;;;;;;;;;4974833;28;20031;-54
2022/03/10 10:55:12;;;;;;;47.97;27.38;;;;;;;;;;4975055;28;20019;-55
2022/03/10 10:57:39;;;;;;;56.40;32.95;;;;;;;;;;4974487;28;20035;-55
2022/03/10 11:00:07;;;;;;;48.65;29.27;;;;;;;;;;4975167;28;20022;-55
2022/03/10 11:02:35;;;;;;;68.00;34.80;;;;;;;;;;4974377;28;20030;-55
2022/03/10 11:05:03;;;;;;;44.17;25.58;;;;;;;;;;4974937;28;20478;-55
2022/03/10 11:07:29;;;;;;;43.40;25.63;;;;;;;;;;4975048;28;20026;-56
2022/03/10 11:09:55;;;;;;;57.33;33.95;;;;;;;;;;4975137;28;20404;-53
2022/03/10 11:12:21;;;;;;;98.25;54.40;;;;;;;;;;4978345;28;20391;-57
2022/03/10 11:14:48;;;;;;;60.80;35.25;;;;;;;;;;4978259;28;20035;-54
2022/03/10 11:17:15;;;;;;;60.15;36.72;;;;;;;;;;4977923;28;20027;-53
2022/03/10 11:19:45;;;;;;;49.35;29.17;;;;;;;;;;4977868;28;20050;-52
2022/03/10 11:22:15;;;;;;;52.65;31.50;;;;;;;;;;4978081;28;20022;-54
2022/03/10 11:25:00;;;;;;;63.65;42.80;;;;;;;;;;4977591;28;20038;-56
2022/03/10 11:27:49;;;;;;;70.45;42.38;;;;;;;;;;4977945;28;20031;-54
2022/03/10 11:30:16;;;;;;;104.50;51.40;;;;;;;;;;4978140;28;20035;-56
2022/03/10 11:32:42;;;;;;;39.70;21.98;;;;;;;;;;4977687;28;20029;-53
2022/03/10 11:35:16;;;;;;;36.05;19.50;;;;;;;;;;4977855;28;20027;-54
2022/03/10 11:37:45;;;;;;;27.63;16.27;;;;;;;;;;4977776;28;20034;-55
2022/03/10 11:40:30;;;;;;;23.60;14.45;;;;;;;;;;4977850;28;20019;-53
2022/03/10 11:43:00;;;;;;;33.75;18.10;;;;;;;;;;4977577;28;20097;-55
2022/03/10 11:45:29;;;;;;;268.27;117.00;;;;;;;;;;4977724;28;20023;-56
2022/03/10 11:47:55;;;;;;;31.35;17.38;;;;;;;;;;4977396;28;20097;-53
2022/03/10 11:50:22;;;;;;;48.53;24.45;;;;;;;;;;4977630;28;20026;-51
2022/03/10 11:52:58;;;;;;;31.05;16.25;;;;;;;;;;4977247;28;20498;-52
2022/03/10 11:55:40;;;;;;;24.58;15.27;;;;;;;;;;4977903;28;20031;-53
2022/03/10 11:58:08;;;;;;;23.92;13.73;;;;;;;;;;4977137;28;20320;-55
2022/03/10 12:00:44;;;;;;;19.77;12.98;;;;;;;;;;4977692;28;20101;-53
2022/03/10 12:03:10;;;;;;;39.35;20.83;;;;;;;;;;4976170;28;20034;-52
2022/03/10 12:05:52;;;;;;;30.42;16.42;;;;;;;;;;4976949;28;20030;-54
2022/03/10 12:08:19;;;;;;;23.83;14.05;;;;;;;;;;4976893;28;20570;-55
2022/03/10 12:10:47;;;;;;;27.65;14.65;;;;;;;;;;4977345;28;20077;-56
2022/03/10 12:13:32;;;;;;;61.05;26.42;;;;;;;;;;4976805;28;20432;-54
2022/03/10 12:15:58;;;;;;;82.57;34.30;;;;;;;;;;4977159;28;20042;-57
2022/03/10 12:18:30;;;;;;;76.28;35.85;;;;;;;;;;4976824;28;20502;-52
2022/03/10 12:20:56;;;;;;;;;;;;;;;;;;4977131;28;20041;-56
2022/03/10 12:23:23;;;;;;;36.75;19.85;;;;;;;;;;4976694;28;19906;-55
2022/03/10 12:25:53;;;;;;;46.28;23.35;;;;;;;;;;4976333;28;20392;-54
2022/03/10 12:28:21;;;;;;;50.70;29.55;;;;;;;;;;4976900;28;20030;-50
2022/03/10 12:30:49;;;;;;;71.85;40.33;;;;;;;;;;4976874;28;20029;-53
2022/03/10 12:33:15;;;;;;;75.70;40.03;;;;;;;;;;4976162;28;20023;-52
2022/03/10 12:35:41;;;;;;;66.72;43.08;;;;;;;;;;4976493;28;20022;-52
2022/03/10 12:38:08;;;;;;;54.85;32.40;;;;;;;;;;4976966;28;20035;-54
2022/03/10 12:40:36;;;;;;;55.17;33.00;;;;;;;;;;4976537;28;20030;-49
2022/03/10 12:43:04;;;;;;;66.68;39.92;;;;;;;;;;4977243;28;20475;-53
2022/03/10 12:45:30;;;;;;;75.22;47.70;;;;;;;;;;4977117;28;20353;-53
2022/03/10 12:48:09;;;;;;;35.67;22.45;;;;;;;;;;4976372;28;20445;-53
2022/03/10 12:50:36;;;;;;;44.53;26.15;;;;;;;;;;4976493;28;20102;-50
2022/03/10 12:53:12;;;;;;;52.65;32.97;;;;;;;;;;4976185;28;20030;-53
2022/03/10 12:55:38;;;;;;;43.67;26.42;;;;;;;;;;4976467;28;20042;-52
2022/03/10 12:58:05;;;;;;;55.78;31.55;;;;;;;;;;4976921;28;20031;-51
2022/03/10 13:00:35;;;;;;;45.45;27.48;;;;;;;;;;4976993;28;20023;-47
2022/03/10 13:03:01;;;;;;;51.33;32.00;;;;;;;;;;4976472;28;20030;-53
2022/03/10 13:05:27;;;;;;;53.60;32.90;;;;;;;;;;4976359;28;20019;-53
2022/03/10 13:07:54;;;;;;;35.92;22.15;;;;;;;;;;4976526;28;20419;-49
2022/03/10 13:10:20;;;;;;;33.38;20.80;;;;;;;;;;4976180;28;20113;-50
2022/03/10 13:12:48;;;;;;;47.47;27.05;;;;;;;;;;4976180;28;20033;-50
2022/03/10 13:15:24;;;;;;;36.05;23.13;;;;;;;;;;4975566;28;20468;-52
2022/03/10 13:17:51;;;;;;;43.22;25.15;;;;;;;;;;4976101;28;20065;-51
2022/03/10 13:20:22;;;;;;;31.42;20.90;;;;;;;;;;4976597;28;20379;-54
2022/03/10 13:22:49;;;;;;;33.07;21.87;;;;;;;;;;4975611;28;20110;-51
2022/03/10 13:25:16;;;;;;;43.38;27.05;;;;;;;;;;4975851;28;20320;-54
2022/03/10 13:27:43;;;;;;;33.97;20.95;;;;;;;;;;4975833;28;20537;-52
2022/03/10 13:30:25;;;;;;;33.42;21.63;;;;;;;;;;4978291;28;20490;-56
2022/03/10 13:32:53;;;;;;;39.15;23.70;;;;;;;;;;4976957;28;20039;-57
2022/03/10 13:35:23;;;;;;;40.78;25.77;;;;;;;;;;4975612;28;20483;-50
2022/03/10 13:37:49;;;;;;;45.78;26.67;;;;;;;;;;4975384;28;20030;-50
2022/03/10 13:40:15;;;;;;;39.85;24.05;;;;;;;;;;4975381;28;20033;-51
2022/03/10 13:42:46;;;;;;;48.38;30.20;;;;;;;;;;4976019;28;20050;-55
2022/03/10 13:45:13;;;;;;;45.97;28.52;;;;;;;;;;4975897;28;20411;-53
2022/03/10 13:47:53;;;;;;;41.85;25.65;;;;;;;;;;4975119;28;20173;-54
2022/03/10 13:50:23;;;;;;;38.50;22.63;;;;;;;;;;4975363;28;20479;-55
2022/03/10 13:52:50;;;;;;;57.65;34.35;;;;;;;;;;4975467;28;20057;-54
2022/03/10 13:55:16;;;;;;;37.88;23.13;;;;;;;;;;4975356;28;20027;-53
2022/03/10 13:57:44;;;;;;;37.50;23.25;;;;;;;;;;4975312;28;20464;-52
2022/03/10 14:00:10;;;;;;;61.67;40.97;;;;;;;;;;4975080;28;20046;-50
2022/03/10 14:02:36;;;;;;;60.17;39.45;;;;;;;;;;4975250;28;20031;-52
2022/03/10 14:05:12;;;;;;;51.92;32.55;;;;;;;;;;4974886;28;20033;-51
2022/03/10 14:07:38;;;;;;;67.70;42.15;;;;;;;;;;4975145;28;20498;-51
2022/03/10 14:10:06;;;;;;;65.15;39.63;;;;;;;;;;4975176;28;20031;-49
2022/03/10 14:12:33;;;;;;;57.35;34.05;;;;;;;;;;4974733;28;20061;-48
2022/03/10 14:14:59;;;;;;;67.30;41.63;;;;;;;;;;4975019;28;20023;-50
2022/03/10 14:17:41;;;;;;;71.80;43.47;;;;;;;;;;4975198;28;20464;-48
2022/03/10 14:20:08;;;;;;;67.88;41.40;;;;;;;;;;4974646;28;20062;-50
2022/03/10 14:22:35;;;;;;;82.55;52.00;;;;;;;;;;4975038;28;20034;-49